Time;durP1;ratioP1;P1;durP2;ratioP2;P2;SDS_P1;SDS_P2;PMS_P1;PMS_P2;Temp;Humidity;BMP_temperature;BMP_pressure;BME280_temperature;BME280_humidity;BME280_pressure;Samples;Min_cycle;Max_cycle;Signal;HPM_P1;HPM_P2
2023/08/14 00:05:11;;;;;;;;;;;19.50;66.00;;;18.76;60.55;96882.50;6060103;23;20333;-87
2023/08/14 00:12:01;;;;;;;;;;;19.50;66.00;;;18.71;60.33;96877.88;6060476;23;19928;-87
2023/08/14 00:15:17;;;;;;;;;;;19.50;65.90;;;18.70;60.11;96878.19;6082524;23;19928;-86
2023/08/14 00:25:40;;;;;;;;;;;19.40;65.80;;;18.69;60.23;96877.38;6064310;23;19928;-87
2023/08/14 01:15:07;;;;;;;;;;;19.30;65.60;;;18.60;60.10;96875.59;5907915;24;19924;-87
2023/08/14 01:22:56;;;;;;;;;;;;;;;;;;;;;
2023/08/14 04:31:34;;;;;;;;;;;19.10;64.20;;;18.37;58.96;96926.19;6097264;23;19928;-86
2023/08/14 04:35:42;;;;;;;;;;;;;;;;;;;;;
2023/08/14 04:42:11;;;;;;;;;;;19.10;64.20;;;18.31;58.86;96943.22;5967361;24;19929;-86
2023/08/14 04:52:59;;;;;;;;;;;19.00;64.70;;;18.32;59.15;96950.41;5968060;24;19922;-86
2023/08/14 04:56:37;;;;;;;;;;;;;;;;;;;;;
2023/08/14 04:59:53;;;;;;;;;;;19.00;65.50;;;18.32;59.71;96951.22;6103275;23;19931;-86
2023/08/14 05:02:52;;;;;;;;;;;19.00;65.60;;;18.31;60.08;96948.75;6082451;23;19928;-86
2023/08/14 05:05:29;;;;;;;;;;;19.00;66.00;;;18.31;60.12;96943.22;6089281;23;19921;-86
2023/08/14 05:08:08;;;;;;;;;;;19.00;66.10;;;18.35;60.50;96953.41;6113351;23;19928;-86
2023/08/14 05:10:42;;;;;;;;;;;19.00;66.40;;;18.37;60.86;96959.47;6088078;23;19925;-86
2023/08/14 05:13:35;;;;;;;;;;;19.00;66.60;;;18.38;60.75;96958.34;6091774;23;19927;-86
2023/08/14 05:16:12;;;;;;;;;;;19.10;66.90;;;18.45;60.89;96968.19;6088212;23;19921;-86
2023/08/14 05:18:45;;;;;;;;;;;19.00;67.00;;;18.45;61.17;96970.97;6111972;23;19921;-86
2023/08/14 05:21:29;;;;;;;;;;;19.10;67.30;;;18.49;61.17;96972.84;6088154;23;19928;-86
2023/08/14 05:24:10;;;;;;;;;;;19.10;67.20;;;18.54;61.21;96964.44;6088930;23;19921;-86
2023/08/14 05:27:13;;;;;;;;;;;;;;;;;;;;;
2023/08/14 05:30:11;;;;;;;;;;;19.20;67.30;;;18.70;60.95;96955.84;6088539;23;19943;-86
2023/08/14 05:33:10;;;;;;;;;;;19.30;68.30;;;18.85;60.71;96952.78;6088865;23;19928;-86
2023/08/14 05:35:49;;;;;;;;;;;19.50;67.10;;;18.97;60.52;96963.41;6087471;23;19932;-86
2023/08/14 05:38:41;;;;;;;;;;;;;;;;;;;;;
2023/08/14 05:41:25;;;;;;;;;;;;;;;;;;;;;
2023/08/14 05:44:09;;;;;;;;;;;19.80;66.30;;;19.32;59.98;96965.81;6089698;23;20008;-86
2023/08/14 05:46:51;;;;;;;;;;;19.90;65.90;;;19.42;59.81;96970.34;6089744;23;19920;-86
2023/08/14 05:49:30;;;;;;;;;;;20.00;65.90;;;19.50;59.55;96977.94;6111911;23;19932;-86
2023/08/14 05:52:07;;;;;;;;;;;20.10;65.60;;;19.55;59.45;96974.22;6087604;23;19924;-86
2023/08/14 05:54:36;;;;;;;;;;;20.10;65.50;;;19.60;59.23;96977.72;6087825;23;19936;-86
2023/08/14 05:57:04;;;;;;;;;;;20.20;65.10;;;19.65;59.20;96975.97;6087821;23;19920;-86
2023/08/14 05:59:35;;;;;;;;;;;20.30;65.10;;;19.69;59.05;96965.84;6088004;23;19920;-87
2023/08/14 06:02:06;;;;;;;;;;;20.30;64.90;;;19.73;58.82;96966.88;6088186;23;19936;-86
2023/08/14 06:04:41;;;;;;;;;;;20.40;64.80;;;19.76;58.85;96969.84;6088471;23;20272;-86
2023/08/14 06:07:14;;;;;;;;;;;20.40;64.80;;;19.79;58.88;96962.88;6088404;23;19924;-86
2023/08/14 06:09:42;;;;;;;;;;;20.40;64.60;;;19.84;58.88;96961.94;6088070;23;19925;-87
2023/08/14 06:12:11;;;;;;;;;;;20.40;64.50;;;19.86;58.81;96963.28;6087361;23;19943;-87
2023/08/14 06:14:42;;;;;;;;;;;20.50;64.60;;;19.90;58.71;96961.53;6087766;23;20340;-87
2023/08/14 06:17:12;;;;;;;;;;;20.50;64.60;;;19.97;58.57;96968.59;6087553;23;19921;-87
2023/08/14 06:19:55;;;;;;;;;;;20.60;64.60;;;20.00;58.59;96970.75;6111746;23;19932;-87
2023/08/14 06:22:28;;;;;;;;;;;20.60;64.40;;;20.03;58.88;96967.38;6111309;23;19921;-87
2023/08/14 06:25:04;;;;;;;;;;;20.60;64.50;;;20.06;58.66;96967.56;6087973;23;19925;-87
2023/08/14 06:27:33;;;;;;;;;;;20.70;64.60;;;20.10;58.71;96972.50;6087366;23;19944;-87
2023/08/14 06:30:01;;;;;;;;;;;20.70;64.60;;;20.12;58.61;96973.81;6087719;23;20252;-87
2023/08/14 06:32:33;;;;;;;;;;;20.70;64.50;;;20.15;58.60;96975.97;6088180;23;20259;-87
2023/08/14 06:35:09;;;;;;;;;;;20.70;64.60;;;20.17;58.56;96968.16;6088248;23;19928;-87
2023/08/14 06:37:42;;;;;;;;;;;20.70;64.50;;;20.19;58.73;96974.22;6111962;23;19920;-86
2023/08/14 06:40:14;;;;;;;;;;;20.80;64.50;;;20.22;58.63;96973.56;6087361;23;19921;-87
2023/08/14 06:42:55;;;;;;;;;;;20.80;64.40;;;20.27;58.32;96980.16;6087504;23;19921;-87
2023/08/14 06:45:28;;;;;;;;;;;20.80;64.40;;;20.28;58.34;96973.47;6088541;23;19928;-87
2023/08/14 06:48:08;;;;;;;;;;;20.90;64.50;;;20.30;58.50;96982.31;6089096;23;20232;-87
2023/08/14 06:50:52;;;;;;;;;;;20.90;64.40;;;20.33;58.43;96978.91;6110345;23;19920;-86
2023/08/14 06:53:31;;;;;;;;;;;20.90;64.50;;;20.35;58.65;96982.16;6114299;23;20362;-86
2023/08/14 06:55:59;;;;;;;;;;;21.00;64.40;;;20.41;58.35;96983.69;6112900;23;19921;-86
2023/08/14 06:58:33;;;;;;;;;;;21.00;64.30;;;20.43;58.41;96981.44;6112599;23;19920;-86
2023/08/14 07:01:03;;;;;;;;;;;21.00;64.20;;;20.45;58.33;96976.38;6111128;23;19932;-87
2023/08/14 07:03:35;;;;;;;;;;;21.00;64.30;;;20.46;58.47;96975.22;6112869;23;20252;-86
2023/08/14 07:06:11;;;;;;;;;;;21.00;64.20;;;20.47;58.39;96984.41;6089646;23;20261;-87
2023/08/14 07:08:39;;;;;;;;;;;21.00;64.30;;;20.49;58.46;96979.34;6089128;23;19928;-87
2023/08/14 07:11:10;;;;;;;;;;;21.00;64.30;;;20.50;58.54;96978.22;6112723;23;20328;-87
2023/08/14 07:13:38;;;;;;;;;;;21.10;64.50;;;20.50;58.43;96970.66;6088989;23;19927;-87
2023/08/14 07:16:10;;;;;;;;;;;21.10;64.40;;;20.53;58.50;96981.16;6112265;23;19920;-87
2023/08/14 07:18:38;;;;;;;;;;;21.10;64.50;;;20.53;58.44;96975.59;6088494;23;19920;-87
2023/08/14 07:21:09;;;;;;;;;;;21.10;64.50;;;20.56;58.60;96974.16;6111902;23;20252;-87
2023/08/14 07:23:38;;;;;;;;;;;21.10;64.50;;;20.60;58.60;96977.94;6088723;23;19928;-87
2023/08/14 07:26:12;;;;;;;;;;;21.10;64.50;;;20.59;58.61;96967.16;6112709;23;20260;-87
2023/08/14 07:28:44;;;;;;;;;;;21.20;64.50;;;20.61;58.56;96968.47;6088627;23;19928;-87
2023/08/14 07:31:15;;;;;;;;;;;21.20;64.60;;;20.67;58.59;96974.72;6137372;23;19920;-87
2023/08/14 07:33:48;;;;;;;;;;;21.20;64.60;;;20.66;58.63;96968.31;6088580;23;19929;-87
2023/08/14 07:36:18;;;;;;;;;;;21.20;64.60;;;20.68;58.56;96962.44;6088835;23;19920;-87
2023/08/14 07:38:47;;;;;;;;;;;21.20;64.50;;;20.68;58.52;96968.81;6088110;23;19927;-87
2023/08/14 07:41:17;;;;;;;;;;;21.30;64.50;;;20.70;58.61;96974.09;6112038;23;20280;-87
2023/08/14 07:43:46;;;;;;;;;;;21.30;64.60;;;20.71;58.57;96970.16;6088696;23;20251;-87
2023/08/14 07:46:19;;;;;;;;;;;21.30;64.50;;;20.73;58.75;96967.06;6088376;23;19920;-87
2023/08/14 07:48:52;;;;;;;;;;;21.30;64.80;;;20.75;58.57;96965.63;6089027;23;19921;-87
2023/08/14 07:51:30;;;;;;;;;;;21.30;64.80;;;20.79;58.83;96961.06;6087955;23;19927;-87
2023/08/14 07:53:58;;;;;;;;;;;21.30;64.70;;;20.80;58.64;96959.09;6088728;23;20360;-87
2023/08/14 07:56:33;;;;;;;;;;;21.30;64.60;;;20.81;58.65;96958.78;6088238;23;19921;-87
2023/08/14 07:59:02;;;;;;;;;;;21.30;64.70;;;20.85;58.81;96965.34;6112126;23;19944;-87
2023/08/14 08:01:34;;;;;;;;;;;21.40;64.70;;;20.85;58.79;96957.00;6089199;23;20498;-87
2023/08/14 08:04:02;;;;;;;;;;;21.40;64.70;;;20.89;58.92;96961.94;6111881;23;19928;-87
2023/08/14 08:06:35;;;;;;;;;;;21.40;64.90;;;20.90;58.84;96960.78;6088778;23;19921;-87
2023/08/14 08:09:15;;;;;;;;;;;21.40;64.70;;;20.88;58.71;96957.50;6113778;23;19928;-87
2023/08/14 08:11:46;;;;;;;;;;;21.40;64.70;;;20.88;59.06;96958.34;6088489;23;19921;-87
2023/08/14 08:14:21;;;;;;;;;;;21.40;64.80;;;20.91;58.96;96952.13;6088266;23;19928;-86
2023/08/14 08:17:21;;;;;;;;;;;21.40;64.90;;;20.94;59.03;96950.66;6089839;23;19921;-87
2023/08/14 08:24:17;;;;;;;;;;;21.50;65.10;;;20.96;59.01;96957.56;6059722;23;19921;-87
2023/08/14 08:26:46;;;;;;;;;;;21.50;65.20;;;20.96;59.26;96953.97;6059730;23;19921;-87
2023/08/14 08:29:37;;;;;;;;;;;21.50;65.20;;;20.94;59.08;96950.66;6065743;23;19921;-86
2023/08/14 08:32:08;;;;;;;;;;;21.50;65.40;;;20.97;59.49;96944.47;6082061;23;19921;-86
2023/08/14 08:34:44;;;;;;;;;;;21.50;66.00;;;20.98;59.60;96946.94;6060257;23;19936;-86
2023/08/14 08:37:22;;;;;;;;;;;;;;;;;;;;;
2023/08/14 08:40:00;;;;;;;;;;;21.50;65.80;;;20.98;59.73;96937.72;6059413;23;19928;-86
2023/08/14 08:42:29;;;;;;;;;;;21.50;65.70;;;21.00;59.90;96932.69;6082849;23;19945;-86
2023/08/14 08:45:05;;;;;;;;;;;21.60;65.80;;;20.99;59.72;96947.72;6059913;23;19921;-86
2023/08/14 08:51:06;;;;;;;;;;;21.60;65.80;;;21.02;60.16;96951.84;6059094;23;19921;-86
2023/08/14 08:53:41;;;;;;;;;;;21.60;66.10;;;20.99;60.21;96944.94;6083609;23;20252;-86
2023/08/14 08:56:28;;;;;;;;;;;21.60;66.10;;;20.99;60.50;96942.16;6061442;23;20356;-86
2023/08/14 08:59:00;;;;;;;;;;;21.60;66.10;;;21.00;60.40;96941.88;6084144;23;20406;-86
2023/08/14 09:01:38;;;;;;;;;;;21.60;66.20;;;21.00;60.48;96935.47;6059330;23;19921;-86
2023/08/14 09:04:10;;;;;;;;;;;21.60;66.30;;;21.01;60.67;96939.88;6060326;23;19921;-86
2023/08/14 09:06:52;;;;;;;;;;;21.60;66.40;;;21.02;60.28;96944.31;6061491;23;19925;-86
2023/08/14 09:09:25;;;;;;;;;;;21.60;66.10;;;21.02;60.01;96935.97;6059359;23;20272;-86
2023/08/14 09:12:04;;;;;;;;;;;21.60;66.00;;;21.03;60.65;96947.94;6082168;23;19944;-86
2023/08/14 09:14:32;;;;;;;;;;;21.60;66.40;;;21.02;60.71;96933.19;6059178;23;19921;-86
2023/08/14 09:17:02;;;;;;;;;;;21.60;66.40;;;21.04;59.99;96938.44;6059756;23;20268;-86
2023/08/14 09:19:43;;;;;;;;;;;21.60;65.90;;;21.00;59.62;96932.69;6059606;23;19928;-87
2023/08/14 09:22:15;;;;;;;;;;;21.60;65.50;;;21.00;60.11;96929.88;6077571;23;19928;-86
2023/08/14 09:24:53;;;;;;;;;;;21.60;65.80;;;20.98;60.45;96929.38;6088965;23;19920;-86
2023/08/14 09:27:43;;;;;;;;;;;21.60;66.20;;;20.98;60.00;96923.81;6098494;23;19920;-86
2023/08/14 09:30:15;;;;;;;;;;;21.60;65.60;;;20.97;59.93;96922.22;6088208;23;19921;-86
2023/08/14 09:32:46;;;;;;;;;;;21.60;65.60;;;20.97;59.76;96925.00;6088181;23;19921;-86
2023/08/14 09:35:14;;;;;;;;;;;21.60;65.50;;;20.94;59.91;96918.06;6088436;23;20253;-86
2023/08/14 09:37:43;;;;;;;;;;;21.60;65.50;;;20.90;59.91;96905.97;6109161;23;19921;-86
2023/08/14 09:40:19;;;;;;;;;;;21.60;65.40;;;20.90;59.80;96917.09;6137045;23;19921;-86
2023/08/14 09:42:56;;;;;;;;;;;21.50;65.50;;;20.90;59.97;96917.09;6087782;23;19921;-87
2023/08/14 09:45:40;;;;;;;;;;;21.50;65.50;;;20.92;59.58;96914.78;6112497;23;19920;-86
2023/08/14 09:48:11;;;;;;;;;;;21.50;65.10;;;20.94;59.09;96908.91;6087886;23;19920;-86
2023/08/14 09:50:40;;;;;;;;;;;21.50;64.70;;;20.95;59.03;96913.34;6110959;23;20340;-86
2023/08/14 09:53:14;;;;;;;;;;;21.60;64.60;;;20.95;58.89;96907.78;6088290;23;19928;-86
2023/08/14 09:55:45;;;;;;;;;;;21.60;64.40;;;20.96;58.61;96915.00;6087730;23;19928;-86
2023/08/14 09:58:17;;;;;;;;;;;21.60;64.30;;;20.95;58.75;96914.16;6087764;23;19927;-86
2023/08/14 10:01:03;;;;;;;;;;;21.60;64.20;;;20.96;58.59;96903.88;6091266;23;19921;-87
2023/08/14 10:03:38;;;;;;;;;;;21.60;64.20;;;20.96;58.29;96909.44;6088267;23;19928;-86
2023/08/14 10:06:07;;;;;;;;;;;21.60;63.80;;;20.95;58.50;96905.00;6087724;23;19921;-87
2023/08/14 10:08:37;;;;;;;;;;;21.60;63.90;;;20.94;58.69;96906.13;6136685;23;19931;-86
2023/08/14 10:11:14;;;;;;;;;;;21.60;63.90;;;20.92;58.47;96902.84;6087632;23;19932;-87
2023/08/14 10:13:56;;;;;;;;;;;21.60;63.60;;;20.93;56.82;96898.94;6087542;23;20336;-87
2023/08/14 10:16:31;;;;;;;;;;;21.60;62.10;;;20.95;56.99;96893.88;6088424;23;19927;-87
2023/08/14 10:19:14;;;;;;;;;;;21.60;62.10;;;20.95;57.28;96891.88;6111993;23;19921;-87
2023/08/14 10:21:53;;;;;;;;;;;21.60;62.20;;;20.96;56.88;96887.97;6113660;23;19925;-87
2023/08/14 10:24:27;;;;;;;;;;;21.60;62.10;;;20.95;56.63;96888.31;6089842;23;19920;-87
2023/08/14 10:26:56;;;;;;;;;;;21.60;61.80;;;20.98;56.81;96893.19;6112544;23;20367;-87
2023/08/14 10:29:38;;;;;;;;;;;21.60;61.70;;;20.95;56.98;96886.31;6089005;23;19928;-87
2023/08/14 10:32:10;;;;;;;;;;;21.60;62.00;;;20.96;56.63;96887.16;6088684;23;19932;-87
2023/08/14 10:34:42;;;;;;;;;;;21.60;61.50;;;20.97;56.60;96877.66;6088895;23;20367;-87
2023/08/14 10:37:29;;;;;;;;;;;21.60;62.00;;;20.97;56.60;96883.25;6089213;23;20263;-87
2023/08/14 10:40:14;;;;;;;;;;;21.60;61.70;;;20.97;56.88;96877.66;6089090;23;19969;-87
2023/08/14 10:42:46;;;;;;;;;;;21.60;61.90;;;20.97;56.53;96878.47;6088750;23;19921;-87
2023/08/14 10:45:28;;;;;;;;;;;21.60;61.60;;;20.96;56.41;96873.25;6089598;23;19921;-87
2023/08/14 10:48:00;;;;;;;;;;;21.70;61.80;;;20.96;57.30;96868.47;6089148;23;19928;-87
2023/08/14 10:50:30;;;;;;;;;;;21.60;62.40;;;20.96;57.63;96864.91;6088914;23;19921;-87
2023/08/14 10:53:02;;;;;;;;;;;21.60;62.80;;;20.92;57.79;96869.44;6088307;23;19944;-87
2023/08/14 10:55:39;;;;;;;;;;;21.60;63.10;;;20.89;57.38;96853.38;6089255;23;19920;-87
2023/08/14 10:58:48;;;;;;;;;;;21.60;62.60;;;20.89;57.10;96859.78;6088712;23;19921;-87
2023/08/14 11:01:37;;;;;;;;;;;21.50;62.20;;;20.87;57.14;96855.66;6137346;23;19925;-87
2023/08/14 11:04:11;;;;;;;;;;;21.50;62.30;;;20.88;56.48;96854.53;6088932;23;19921;-87
2023/08/14 11:07:11;;;;;;;;;;;21.50;61.60;;;20.91;56.50;96856.69;6088672;23;19927;-87
2023/08/14 11:09:40;;;;;;;;;;;21.50;61.30;;;20.89;57.14;96850.59;6089146;23;19964;-87
2023/08/14 11:12:09;;;;;;;;;;;21.50;62.30;;;20.89;56.54;96847.81;6112370;23;19928;-87
2023/08/14 11:14:38;;;;;;;;;;;21.50;61.60;;;20.88;56.60;96852.59;6088812;23;19920;-87
2023/08/14 11:17:11;;;;;;;;;;;21.50;61.60;;;20.87;56.70;96839.81;6113016;23;19925;-87
2023/08/14 11:19:44;;;;;;;;;;;21.50;61.80;;;20.89;57.27;96848.66;6088555;23;20337;-87
2023/08/14 11:22:13;;;;;;;;;;;21.50;62.40;;;20.87;56.81;96845.38;6087984;23;19920;-87
2023/08/14 11:24:57;;;;;;;;;;;21.60;62.20;;;20.86;56.46;96846.50;6138096;23;19973;-87
2023/08/14 11:27:26;;;;;;;;;;;21.50;61.60;;;20.87;57.24;96841.75;6088823;23;20068;-87
2023/08/14 11:29:54;;;;;;;;;;;21.50;62.30;;;20.85;57.66;96836.53;6088243;23;19920;-87
2023/08/14 11:32:30;;;;;;;;;;;21.50;63.10;;;20.80;57.75;96829.16;6112335;23;19920;-87
2023/08/14 11:34:59;;;;;;;;;;;21.50;63.20;;;20.79;57.95;96830.28;6088896;23;19927;-87
2023/08/14 11:37:32;;;;;;;;;;;21.40;63.30;;;20.77;58.33;96826.19;6088870;23;19927;-87
2023/08/14 11:40:04;;;;;;;;;;;21.40;63.50;;;20.72;58.05;96820.72;6088641;23;20313;-87
2023/08/14 11:42:33;;;;;;;;;;;21.40;63.40;;;20.70;58.20;96818.28;6111448;23;19943;-87
2023/08/14 11:45:03;;;;;;;;;;;21.40;63.50;;;20.68;58.22;96809.44;6088574;23;20525;-87
2023/08/14 11:47:46;;;;;;;;;;;21.30;63.70;;;20.66;58.48;96803.38;6113507;23;19921;-87
2023/08/14 11:50:15;;;;;;;;;;;21.40;63.80;;;20.68;58.22;96815.00;6137286;23;19927;-87
2023/08/14 11:52:46;;;;;;;;;;;21.30;63.60;;;20.69;57.77;96808.28;6087552;23;19950;-87
2023/08/14 11:55:16;;;;;;;;;;;21.30;63.20;;;20.70;57.76;96807.16;6111947;23;19928;-87
2023/08/14 11:57:48;;;;;;;;;;;21.40;63.20;;;20.70;57.01;96802.41;6088719;23;19932;-86
2023/08/14 12:00:18;;;;;;;;;;;21.40;62.30;;;20.75;56.15;96809.81;6111136;23;20375;-87
2023/08/14 12:02:53;;;;;;;;;;;21.30;61.30;;;20.77;55.40;96795.59;6111894;23;19920;-87
2023/08/14 12:05:22;;;;;;;;;;;21.40;60.40;;;20.80;55.94;96801.31;6088168;23;19943;-87
2023/08/14 12:07:53;;;;;;;;;;;21.40;61.00;;;20.81;56.45;96797.41;6111975;23;19927;-87
2023/08/14 12:10:21;;;;;;;;;;;21.40;61.50;;;20.81;56.19;96786.25;6112648;23;19928;-86
2023/08/14 12:12:50;;;;;;;;;;;21.40;61.30;;;20.82;55.79;96787.06;6087817;23;19921;-87
2023/08/14 12:15:21;;;;;;;;;;;21.40;60.50;;;20.83;56.28;96788.72;6088766;23;19920;-86
2023/08/14 12:17:51;;;;;;;;;;;21.40;61.20;;;20.82;56.31;96785.13;6088585;23;19928;-87
2023/08/14 12:20:22;;;;;;;;;;;21.40;62.40;;;20.80;56.44;96779.06;6088785;23;19975;-87
2023/08/14 12:22:50;;;;;;;;;;;21.40;61.30;;;20.80;56.69;96779.06;6112143;23;19921;-87
2023/08/14 12:25:26;;;;;;;;;;;21.50;61.80;;;20.81;57.01;96777.91;6088894;23;19921;-87
2023/08/14 12:28:03;;;;;;;;;;;21.40;62.10;;;20.80;57.03;96776.28;6088577;23;19921;-87
2023/08/14 12:30:35;;;;;;;;;;;21.50;62.20;;;20.79;56.74;96771.84;6088660;23;19928;-87
2023/08/14 12:33:13;;;;;;;;;;;21.40;62.90;;;20.78;57.31;96764.66;6065058;23;19921;-87
2023/08/14 12:35:48;;;;;;;;;;;21.40;62.30;;;20.81;57.28;96764.00;6088689;23;20260;-87
2023/08/14 12:38:16;;;;;;;;;;;21.40;62.50;;;20.81;57.28;96769.56;6088715;23;19927;-86
2023/08/14 12:40:45;;;;;;;;;;;21.40;62.50;;;20.81;57.35;96761.22;6112553;23;20274;-87
2023/08/14 12:43:13;;;;;;;;;;;21.50;62.80;;;20.79;57.59;96759.88;6111444;23;19921;-87
2023/08/14 12:45:44;;;;;;;;;;;21.50;63.10;;;20.78;57.53;96753.50;6088584;23;19920;-87
2023/08/14 12:48:14;;;;;;;;;;;21.40;63.00;;;20.79;57.59;96749.59;6088463;23;19931;-87
2023/08/14 12:50:48;;;;;;;;;;;21.40;62.90;;;20.78;57.61;96749.94;6089070;23;19925;-87
2023/08/14 12:53:17;;;;;;;;;;;21.40;63.00;;;20.77;57.92;96751.88;6087981;23;19936;-87
2023/08/14 12:55:51;;;;;;;;;;;21.40;63.20;;;20.77;57.97;96749.09;6089164;23;19925;-86
2023/08/14 12:58:23;;;;;;;;;;;21.40;63.20;;;20.76;58.04;96747.44;6112199;23;19921;-87
2023/08/14 13:01:01;;;;;;;;;;;21.40;63.40;;;20.75;58.20;96740.25;6089798;23;19921;-87
2023/08/14 13:03:31;;;;;;;;;;;21.40;63.30;;;20.73;58.26;96738.91;6088586;23;19920;-87
2023/08/14 13:06:00;;;;;;;;;;;21.40;63.50;;;20.72;58.16;96746.41;6088049;23;19928;-87
2023/08/14 13:08:28;;;;;;;;;;;21.40;63.50;;;20.73;58.34;96750.84;6112331;23;20263;-87
2023/08/14 13:11:05;;;;;;;;;;;21.40;63.50;;;20.75;57.95;96743.03;6088079;23;19928;-87
2023/08/14 13:13:34;;;;;;;;;;;21.40;63.50;;;20.72;58.30;96738.06;6112257;23;19928;-87
2023/08/14 13:16:02;;;;;;;;;;;21.40;63.60;;;20.70;58.18;96735.63;6111338;23;19920;-87
2023/08/14 13:18:35;;;;;;;;;;;21.40;63.70;;;20.73;58.29;96734.16;6088304;23;19928;-87
2023/08/14 13:21:11;;;;;;;;;;;21.30;63.70;;;20.70;58.41;96732.84;6087844;23;19928;-87
2023/08/14 13:24:05;;;;;;;;;;;21.30;63.80;;;20.73;58.50;96739.72;6112242;23;19927;-86
2023/08/14 13:26:34;;;;;;;;;;;21.40;63.90;;;20.72;58.43;96732.50;6112036;23;19921;-87
2023/08/14 13:29:05;;;;;;;;;;;21.40;63.70;;;20.74;58.27;96732.19;6088461;23;19947;-87
2023/08/14 13:31:41;;;;;;;;;;;21.40;63.70;;;20.75;58.51;96734.69;6087789;23;20256;-87
2023/08/14 13:34:14;;;;;;;;;;;21.40;63.90;;;20.75;58.52;96736.66;6087830;23;20233;-87
2023/08/14 13:36:50;;;;;;;;;;;21.40;63.90;;;20.73;58.62;96736.94;6089981;23;19921;-87
2023/08/14 13:39:18;;;;;;;;;;;21.40;63.90;;;20.75;58.22;96736.66;6088317;23;19925;-87
2023/08/14 13:41:50;;;;;;;;;;;21.40;63.90;;;20.75;58.60;96737.47;6111160;23;19928;-87
2023/08/14 13:44:19;;;;;;;;;;;21.40;63.90;;;20.74;58.64;96729.41;6088327;23;19932;-87
2023/08/14 13:46:49;;;;;;;;;;;21.40;64.00;;;20.75;58.61;96725.53;6088123;23;19928;-87
2023/08/14 13:49:21;;;;;;;;;;;21.40;64.00;;;20.75;58.57;96731.09;6111747;23;19927;-87
2023/08/14 13:51:54;;;;;;;;;;;21.40;64.00;;;20.73;58.16;96725.81;6088485;23;19921;-87
2023/08/14 13:54:27;;;;;;;;;;;21.40;63.50;;;20.76;58.10;96727.97;6088910;23;19921;-87
2023/08/14 13:56:55;;;;;;;;;;;21.40;63.50;;;20.76;58.61;96727.97;6111478;23;19921;-87
2023/08/14 13:59:28;;;;;;;;;;;21.40;63.90;;;20.78;58.51;96725.69;6087892;23;20264;-87
2023/08/14 14:01:59;;;;;;;;;;;21.40;64.00;;;20.76;58.78;96713.25;6111636;23;19920;-87
2023/08/14 14:04:30;;;;;;;;;;;21.40;64.00;;;20.76;58.44;96716.84;6087650;23;19920;-87
2023/08/14 14:07:10;;;;;;;;;;;21.40;64.00;;;20.78;58.46;96722.91;6088719;23;19920;-87
2023/08/14 14:09:39;;;;;;;;;;;21.40;63.50;;;20.77;58.58;96717.69;6087865;23;19921;-86
2023/08/14 14:12:10;;;;;;;;;;;21.40;63.90;;;20.80;58.31;96711.44;6087184;23;20276;-87
2023/08/14 14:14:44;;;;;;;;;;;21.40;63.90;;;20.80;58.63;96706.72;6112317;23;20252;-87
2023/08/14 14:17:17;;;;;;;;;;;21.40;63.90;;;20.79;58.52;96710.63;6088350;23;20256;-87
2023/08/14 14:19:50;;;;;;;;;;;21.40;63.80;;;20.80;58.50;96709.50;6088059;23;19921;-87
2023/08/14 14:22:28;;;;;;;;;;;21.40;63.80;;;20.78;58.26;96706.22;6111223;23;19921;-87
2023/08/14 14:25:00;;;;;;;;;;;21.50;63.80;;;20.81;57.81;96710.31;6110800;23;20363;-87
2023/08/14 14:27:43;;;;;;;;;;;21.50;63.20;;;20.82;57.84;96706.38;6088426;23;20359;-87
2023/08/14 14:30:20;;;;;;;;;;;21.40;63.10;;;20.83;58.12;96705.22;6087501;23;19921;-87
2023/08/14 14:32:48;;;;;;;;;;;21.50;63.70;;;20.82;58.34;96698.88;6087441;23;19920;-86
2023/08/14 14:35:20;;;;;;;;;;;21.40;63.50;;;20.83;58.26;96697.72;6136834;23;19921;-87
2023/08/14 14:37:51;;;;;;;;;;;21.50;63.70;;;20.82;58.12;96703.59;6088069;23;19921;-87
2023/08/14 14:40:28;;;;;;;;;;;21.50;63.40;;;20.83;58.31;96699.66;6087992;23;19921;-87
2023/08/14 14:43:08;;;;;;;;;;;21.50;63.70;;;20.81;58.35;96701.94;6089034;23;19920;-87
2023/08/14 14:45:50;;;;;;;;;;;21.50;63.70;;;20.80;58.25;96701.16;6110760;23;19928;-87
2023/08/14 14:48:21;;;;;;;;;;;21.40;63.60;;;20.81;58.30;96696.38;6111478;23;19943;-87
2023/08/14 14:51:03;;;;;;;;;;;21.50;63.70;;;20.78;58.35;96697.88;6087715;23;20552;-88
2023/08/14 14:57:09;;;;;;;;;;;21.40;63.70;;;20.79;58.59;96698.66;6058463;23;19921;-87
2023/08/14 14:59:41;;;;;;;;;;;21.40;63.70;;;20.78;57.78;96697.88;6087402;23;19925;-87
2023/08/14 15:02:09;;;;;;;;;;;21.40;63.10;;;20.79;57.70;96693.94;6086887;23;19948;-87
2023/08/14 15:04:38;;;;;;;;;;;21.40;62.90;;;20.80;58.13;96703.09;6087725;23;19920;-87
2023/08/14 15:07:10;;;;;;;;;;;21.40;63.40;;;20.79;57.96;96701.44;6089002;23;20336;-87
2023/08/14 15:09:40;;;;;;;;;;;21.40;63.40;;;20.80;57.75;96703.94;6112069;23;19921;-87
2023/08/14 15:12:10;;;;;;;;;;;21.40;63.20;;;20.79;58.10;96701.44;6088421;23;19928;-87
2023/08/14 15:14:44;;;;;;;;;;;21.40;63.20;;;20.78;57.52;96699.84;6088915;23;19921;-87
2023/08/14 15:17:17;;;;;;;;;;;21.40;62.60;;;20.80;57.79;96697.53;6089388;23;19927;-87
2023/08/14 15:19:51;;;;;;;;;;;21.40;63.90;;;20.80;57.86;96700.31;6088744;23;20252;-87
2023/08/14 15:22:21;;;;;;;;;;;21.40;63.10;;;20.79;57.75;96695.88;6088188;23;20362;-87
2023/08/14 15:24:50;;;;;;;;;;;21.40;63.10;;;20.77;57.65;96689.84;6112858;23;19927;-87
2023/08/14 15:27:21;;;;;;;;;;;21.40;63.10;;;20.76;57.57;96691.81;6112589;23;19924;-87
2023/08/14 15:29:51;;;;;;;;;;;21.40;63.10;;;20.75;57.65;96698.50;6089052;23;20261;-87
2023/08/14 15:32:35;;;;;;;;;;;21.40;62.90;;;20.76;57.62;96694.59;6088305;23;19921;-87
2023/08/14 15:35:03;;;;;;;;;;;21.40;62.80;;;20.77;57.81;96701.78;6112297;23;19921;-87
2023/08/14 15:37:42;;;;;;;;;;;21.40;63.10;;;20.77;57.87;96699.00;6113232;23;19920;-87
2023/08/14 15:40:19;;;;;;;;;;;21.40;63.10;;;20.74;57.79;96699.63;6122666;23;20364;-87
2023/08/14 15:42:49;;;;;;;;;;;21.40;63.00;;;20.75;57.53;96701.28;6111410;23;19928;-87
2023/08/14 15:45:18;;;;;;;;;;;21.40;63.00;;;20.71;57.79;96697.50;6111954;23;19921;-87
2023/08/14 15:47:46;;;;;;;;;;;21.30;62.90;;;20.70;57.75;96690.31;6088873;23;19928;-87
2023/08/14 15:50:17;;;;;;;;;;;21.30;63.10;;;20.70;57.94;96690.31;6089123;23;19920;-87
2023/08/14 15:53:01;;;;;;;;;;;;;;;;;;;;;
2023/08/14 15:55:41;;;;;;;;;;;21.30;63.10;;;20.69;57.93;96688.66;6088543;23;19928;-87
2023/08/14 15:58:11;;;;;;;;;;;21.40;63.10;;;20.69;57.61;96692.25;6089219;23;20367;-87
2023/08/14 16:00:47;;;;;;;;;;;21.40;63.10;;;20.69;57.54;96699.78;6088867;23;19921;-87
2023/08/14 16:03:15;;;;;;;;;;;21.40;63.00;;;20.69;57.84;96688.66;6087876;23;19921;-87
2023/08/14 16:05:46;;;;;;;;;;;21.30;63.20;;;20.65;57.87;96699.63;6089182;23;20332;-87
2023/08/14 16:08:29;;;;;;;;;;;21.30;63.10;;;20.66;57.83;96695.69;6090237;23;20340;-87
2023/08/14 16:10:59;;;;;;;;;;;21.30;63.20;;;20.66;57.55;96695.69;6088336;23;19928;-87
2023/08/14 16:13:28;;;;;;;;;;;21.30;63.20;;;20.66;57.82;96692.09;6087766;23;19928;-87
2023/08/14 16:15:56;;;;;;;;;;;21.30;63.20;;;20.64;57.88;96691.59;6088485;23;19921;-87
2023/08/14 16:18:27;;;;;;;;;;;21.30;63.30;;;20.63;57.76;96689.94;6088412;23;19920;-87
2023/08/14 16:20:58;;;;;;;;;;;21.30;63.30;;;20.62;58.09;96693.88;6088217;23;19921;-87
2023/08/14 16:23:28;;;;;;;;;;;21.20;63.30;;;20.61;58.17;96697.78;6137533;23;19920;-87
2023/08/14 16:25:56;;;;;;;;;;;21.30;63.50;;;20.60;58.03;96702.56;6088810;23;19927;-87
2023/08/14 16:28:24;;;;;;;;;;;21.20;63.50;;;20.57;58.09;96702.38;6137558;23;19921;-87
2023/08/14 16:30:53;;;;;;;;;;;21.30;63.60;;;20.61;58.19;96697.78;6088587;23;20348;-87
2023/08/14 16:33:21;;;;;;;;;;;21.20;63.50;;;20.60;58.16;96696.16;6088358;23;19924;-87
2023/08/14 16:35:51;;;;;;;;;;;21.20;63.60;;;20.58;58.21;96698.47;6112349;23;20260;-87
2023/08/14 16:38:24;;;;;;;;;;;21.20;63.70;;;20.56;58.25;96695.97;6111808;23;19943;-87
2023/08/14 16:40:54;;;;;;;;;;;21.20;63.70;;;20.58;57.96;96699.25;6112001;23;19925;-87